createdAt,value
2019-05-10T00:02:18.685Z,98.50
2019-05-10T00:05:10.711Z,96.87
2019-05-10T00:08:02.569Z,93.92
2019-05-10T00:10:35.815Z,149.97
2019-05-10T00:13:11.670Z,164.45
2019-05-10T00:15:45.854Z,111.32
2019-05-10T00:18:20.063Z,85.03
2019-05-10T00:20:56.014Z,97.55
2019-05-10T00:23:30.305Z,135.28
2019-05-10T00:26:04.554Z,156.90
2019-05-10T00:28:39.899Z,154.42
2019-05-10T00:31:14.218Z,145.10
2019-05-10T00:33:48.487Z,130.52
2019-05-10T00:36:22.708Z,143.50
2019-05-10T00:38:57.333Z,149.85
2019-05-10T00:41:34.686Z,94.52
2019-05-10T00:44:09.011Z,99.25
2019-05-10T00:46:43.418Z,77.53
2019-05-10T00:49:18.851Z,77.58
2019-05-10T00:51:53.188Z,74.03
2019-05-10T00:54:29.774Z,76.47
2019-05-10T00:57:04.384Z,68.00
2019-05-10T00:59:38.561Z,61.58
2019-05-10T01:02:12.906Z,56.25
2019-05-10T01:04:47.364Z,51.58
2019-05-10T01:07:21.768Z,48.95
2019-05-10T01:09:56.157Z,46.18
2019-05-10T01:12:30.624Z,43.85
2019-05-10T01:15:05.022Z,43.38
2019-05-10T01:17:40.869Z,51.33
2019-05-10T01:20:16.423Z,52.25
2019-05-10T01:22:50.898Z,58.60
2019-05-10T01:25:48.014Z,62.55
2019-05-10T01:28:22.277Z,54.18
2019-05-10T01:30:56.606Z,45.28
2019-05-10T01:33:32.258Z,40.28
2019-05-10T01:36:06.566Z,44.03
2019-05-10T01:38:42.122Z,47.00
2019-05-10T01:41:16.379Z,45.45
2019-05-10T01:43:51.522Z,52.50
2019-05-10T01:46:26.018Z,44.75
2019-05-10T01:49:00.618Z,55.25
2019-05-10T01:51:34.817Z,44.90
2019-05-10T01:54:10.176Z,47.78
2019-05-10T01:56:44.401Z,47.05
2019-05-10T01:59:18.662Z,42.17
2019-05-10T02:01:54.068Z,40.90
2019-05-10T02:04:29.502Z,38.42
2019-05-10T02:07:03.838Z,37.13
2019-05-10T02:09:38.176Z,38.33
2019-05-10T02:12:13.600Z,36.20
2019-05-10T02:14:48.406Z,36.77
2019-05-10T02:17:22.709Z,95.50
2019-05-10T02:19:56.972Z,39.03
2019-05-10T02:22:31.278Z,37.48
2019-05-10T02:25:05.675Z,34.33
2019-05-10T02:27:40.263Z,33.08
2019-05-10T02:30:14.801Z,33.58
2019-05-10T02:32:49.103Z,32.78
2019-05-10T02:35:23.385Z,33.25
2019-05-10T02:37:57.734Z,32.63
2019-05-10T02:40:32.052Z,31.82
2019-05-10T02:43:06.221Z,32.63
2019-05-10T02:45:40.562Z,31.00
2019-05-10T02:48:14.912Z,33.02
2019-05-10T02:50:49.657Z,30.40
2019-05-10T02:53:23.929Z,30.40
2019-05-10T02:55:59.122Z,31.45
2019-05-10T02:58:34.872Z,39.73
2019-05-10T03:01:10.874Z,39.90
2019-05-10T03:03:46.894Z,37.80
2019-05-10T03:06:23.819Z,37.42
2019-05-10T03:08:58.183Z,37.20
2019-05-10T03:11:34.396Z,41.15
2019-05-10T03:14:16.579Z,35.13
2019-05-10T03:16:54.775Z,37.55
2019-05-10T03:19:29.173Z,32.88
2019-05-10T03:22:09.836Z,32.33
2019-05-10T03:24:44.217Z,31.33
2019-05-10T03:27:18.579Z,36.80
2019-05-10T03:29:52.828Z,28.80
2019-05-10T03:32:28.286Z,28.87
2019-05-10T03:35:02.759Z,28.07
2019-05-10T03:37:37.354Z,27.30
2019-05-10T03:40:11.617Z,29.23
2019-05-10T03:42:46.226Z,28.35
2019-05-10T03:45:20.940Z,27.65
2019-05-10T03:47:55.442Z,28.15
2019-05-10T03:50:29.737Z,27.15
2019-05-10T03:53:04.061Z,26.45
2019-05-10T03:55:38.383Z,28.95
2019-05-10T03:58:12.699Z,25.88
2019-05-10T04:00:47.658Z,24.12
2019-05-10T04:03:22.489Z,27.40
2019-05-10T04:06:08.851Z,28.87
2019-05-10T04:08:43.207Z,26.50
2019-05-10T04:11:17.478Z,24.45
2019-05-10T04:13:51.894Z,27.48
2019-05-10T04:16:27.602Z,26.42
2019-05-10T04:19:01.960Z,26.27
2019-05-10T04:21:36.261Z,27.50
2019-05-10T04:24:10.589Z,26.82
2019-05-10T04:26:45.387Z,26.70
2019-05-10T04:29:21.643Z,26.55
2019-05-10T04:31:57.142Z,26.57
2019-05-10T04:34:32.765Z,25.55
2019-05-10T04:37:07.414Z,26.30
2019-05-10T04:39:42.203Z,26.23
2019-05-10T04:42:16.751Z,28.83
2019-05-10T04:44:53.387Z,32.33
2019-05-10T04:47:27.295Z,35.58
2019-05-10T04:50:02.929Z,37.00
2019-05-10T04:52:38.719Z,35.88
2019-05-10T04:55:13.279Z,35.73
2019-05-10T04:57:50.954Z,32.25
2019-05-10T05:00:23.446Z,30.35
2019-05-10T05:02:57.729Z,29.48
2019-05-10T05:05:32.059Z,27.80
2019-05-10T05:08:08.796Z,27.62
2019-05-10T05:13:25.992Z,29.85
2019-05-10T05:16:00.515Z,32.03
2019-05-10T05:18:34.968Z,31.85
2019-05-10T05:21:09.538Z,31.17
2019-05-10T05:23:51.674Z,33.02
2019-05-10T05:26:28.167Z,31.73
2019-05-10T05:29:02.267Z,30.68
2019-05-10T05:31:37.191Z,30.95
2019-05-10T05:34:11.676Z,28.62
2019-05-10T05:36:47.320Z,27.00
2019-05-10T05:39:21.892Z,27.35
2019-05-10T05:41:57.372Z,27.75
2019-05-10T05:44:32.890Z,26.27
2019-05-10T05:47:08.607Z,25.92
2019-05-10T05:49:43.359Z,25.88
2019-05-10T05:52:18.020Z,24.32
2019-05-10T05:54:52.997Z,24.57
2019-05-10T05:57:29.622Z,24.50
2019-05-10T06:00:06.702Z,24.02
2019-05-10T06:02:45.077Z,24.30
2019-05-10T06:05:32.814Z,23.35
2019-05-10T06:07:53.624Z,23.35
2019-05-10T06:10:56.833Z,23.05
2019-05-10T06:13:30.345Z,21.57
2019-05-10T06:16:06.786Z,22.62
2019-05-10T06:18:41.529Z,22.40
2019-05-10T06:21:17.991Z,22.30
2019-05-10T06:23:50.916Z,21.52
2019-05-10T06:26:28.616Z,20.88
2019-05-10T06:29:04.889Z,21.60
2019-05-10T06:31:39.647Z,20.52
2019-05-10T06:34:16.285Z,21.12
2019-05-10T06:36:56.145Z,20.50
2019-05-10T06:39:30.800Z,20.52
2019-05-10T06:42:06.801Z,20.77
2019-05-10T06:44:41.428Z,26.60
2019-05-10T06:47:16.948Z,24.32
2019-05-10T06:49:52.408Z,21.85
2019-05-10T06:52:29.761Z,21.15
2019-05-10T06:55:04.072Z,19.60
2019-05-10T06:57:40.001Z,20.00
2019-05-10T07:03:10.625Z,19.55
2019-05-10T07:05:45.251Z,19.95
2019-05-10T07:08:20.509Z,19.02
2019-05-10T07:10:54.946Z,18.30
2019-05-10T07:13:31.006Z,18.60
2019-05-10T07:16:06.983Z,21.10
2019-05-10T07:18:49.204Z,20.60
2019-05-10T07:21:25.906Z,25.30
2019-05-10T07:24:02.181Z,19.40
2019-05-10T07:26:38.433Z,19.55
2019-05-10T07:29:27.879Z,19.70
2019-05-10T07:31:48.733Z,18.35
2019-05-10T07:34:23.398Z,17.90
2019-05-10T07:37:01.971Z,16.65
2019-05-10T07:39:37.723Z,17.07
2019-05-10T07:42:18.533Z,17.15
2019-05-10T07:44:55.727Z,17.10
2019-05-10T07:47:32.500Z,16.93
2019-05-10T07:50:11.636Z,17.35
2019-05-10T07:52:50.213Z,20.45
2019-05-10T07:55:28.526Z,22.05
2019-05-10T07:58:05.075Z,20.43
2019-05-10T08:00:38.046Z,18.25
2019-05-10T08:03:17.499Z,22.60
2019-05-10T08:05:54.992Z,24.65
2019-05-10T08:08:25.693Z,21.25
2019-05-10T08:11:01.371Z,18.95
2019-05-10T08:13:35.608Z,19.15
2019-05-10T08:16:22.976Z,18.70
2019-05-10T08:19:00.998Z,18.40
2019-05-10T08:21:34.195Z,15.43
2019-05-10T08:24:22.233Z,12.45
2019-05-10T08:27:06.795Z,12.37
2019-05-10T08:29:33.045Z,11.93
2019-05-10T08:32:07.829Z,12.25
2019-05-10T08:34:51.649Z,11.60
2019-05-10T08:37:19.354Z,10.65
2019-05-10T08:39:56.013Z,11.70
2019-05-10T08:42:40.797Z,11.38
2019-05-10T08:45:08.966Z,11.28
2019-05-10T08:47:42.622Z,11.35
2019-05-10T08:50:42.232Z,12.70
2019-05-10T08:52:56.706Z,11.25
2019-05-10T08:55:28.284Z,11.73
2019-05-10T08:58:02.963Z,11.05
2019-05-10T09:00:49.669Z,11.03
2019-05-10T09:03:18.910Z,12.95
2019-05-10T09:05:53.702Z,12.10
2019-05-10T09:08:31.532Z,13.00
2019-05-10T09:11:06.588Z,12.28
2019-05-10T09:13:42.328Z,13.30
2019-05-10T09:16:15.966Z,12.25
2019-05-10T09:18:53.501Z,12.58
2019-05-10T09:21:32.689Z,12.53
2019-05-10T09:24:13.165Z,12.37
2019-05-10T09:26:54.830Z,13.08
2019-05-10T09:29:27.360Z,12.85
2019-05-10T09:32:04.045Z,13.20
2019-05-10T09:34:35.501Z,13.53
2019-05-10T09:37:16.075Z,13.18
2019-05-10T09:39:46.980Z,13.10
2019-05-10T09:42:26.481Z,13.10
2019-05-10T09:44:57.092Z,13.20
2019-05-10T09:47:32.980Z,12.55
2019-05-10T09:50:07.556Z,17.00
2019-05-10T09:52:44.263Z,13.53
2019-05-10T09:55:18.741Z,13.03
2019-05-10T09:57:53.203Z,15.98
2019-05-10T10:00:39.870Z,13.10
2019-05-10T10:03:14.109Z,13.45
2019-05-10T10:05:55.280Z,13.32
2019-05-10T10:08:28.101Z,13.50
2019-05-10T10:11:10.345Z,14.05
2019-05-10T10:13:40.827Z,15.65
2019-05-10T10:16:14.850Z,15.50
2019-05-10T10:18:49.744Z,16.77
2019-05-10T10:21:34.916Z,18.67
2019-05-10T10:24:12.724Z,14.78
2019-05-10T10:26:38.260Z,15.80
2019-05-10T10:29:13.731Z,16.45
2019-05-10T10:31:55.529Z,14.05
2019-05-10T10:34:32.559Z,14.63
2019-05-10T10:37:07.728Z,14.90
2019-05-10T10:46:11.946Z,17.48
2019-05-10T10:48:43.655Z,15.15
2019-05-10T10:51:18.161Z,13.48
2019-05-10T10:53:54.837Z,13.53
2019-05-10T10:56:28.314Z,19.05
2019-05-10T10:59:02.572Z,17.17
2019-05-10T11:01:49.184Z,14.85
2019-05-10T11:04:12.428Z,13.68
2019-05-10T11:06:46.601Z,14.85
2019-05-10T11:09:20.846Z,13.65
2019-05-10T11:11:55.979Z,13.60
2019-05-10T11:14:31.992Z,13.38
2019-05-10T11:17:05.956Z,14.10
2019-05-10T11:19:41.748Z,23.32
2019-05-10T11:22:16.415Z,23.67
2019-05-10T11:25:03.108Z,20.57
2019-05-10T11:27:30.820Z,19.95
2019-05-10T11:30:12.106Z,15.70
2019-05-10T11:32:48.378Z,15.32
2019-05-10T11:35:31.358Z,15.10
2019-05-10T11:38:12.901Z,13.85
2019-05-10T11:41:06.926Z,14.43
2019-05-10T11:43:39.017Z,13.90
2019-05-10T11:46:13.701Z,12.73
2019-05-10T11:49:01.587Z,12.37
2019-05-10T11:51:35.250Z,12.45
2019-05-10T11:54:11.156Z,12.60
2019-05-10T11:56:46.058Z,13.28
2019-05-10T11:59:21.831Z,12.40
2019-05-10T12:01:59.503Z,11.25
2019-05-10T12:07:12.662Z,13.65
2019-05-10T12:09:53.338Z,16.12
2019-05-10T12:14:57.910Z,14.85
2019-05-10T12:17:32.443Z,14.70
2019-05-10T12:20:12.534Z,15.53
2019-05-10T12:22:52.145Z,16.07
2019-05-10T12:25:42.541Z,17.45
2019-05-10T12:26:16.068Z,17.00
2019-05-10T12:26:49.078Z,13.90
2019-05-10T12:28:03.995Z,15.70
2019-05-10T12:30:47.051Z,16.12
2019-05-10T12:33:25.901Z,14.68
2019-05-10T12:35:58.457Z,15.05
2019-05-10T12:38:35.834Z,15.08
2019-05-10T12:41:09.721Z,14.55
2019-05-10T12:43:48.210Z,14.33
2019-05-10T12:46:22.557Z,14.10
2019-05-10T12:48:56.432Z,15.70
2019-05-10T12:51:31.325Z,15.70
2019-05-10T12:54:07.235Z,15.93
2019-05-10T12:56:46.095Z,16.20
2019-05-10T12:59:17.342Z,17.40
2019-05-10T13:01:53.188Z,19.20
2019-05-10T13:04:40.093Z,20.02
2019-05-10T13:07:08.933Z,22.87
2019-05-10T13:10:01.419Z,22.45
2019-05-10T13:12:37.054Z,21.17
2019-05-10T13:15:12.315Z,21.52
2019-05-10T13:17:53.174Z,20.52
2019-05-10T13:20:25.433Z,20.15
2019-05-10T13:22:59.811Z,18.85
2019-05-10T13:25:35.484Z,18.60
2019-05-10T13:28:11.751Z,18.60
2019-05-10T13:30:47.703Z,31.42
2019-05-10T13:33:29.020Z,19.35
2019-05-10T13:35:58.581Z,18.70
2019-05-10T13:38:36.947Z,19.73
2019-05-10T13:41:17.789Z,19.25
2019-05-10T13:43:59.046Z,17.30
2019-05-10T13:46:30.589Z,18.10
2019-05-10T13:49:07.996Z,17.92
2019-05-10T13:51:42.181Z,18.70
2019-05-10T13:54:19.306Z,17.80
2019-05-10T13:56:56.022Z,18.90
2019-05-10T13:59:30.221Z,19.05
2019-05-10T14:02:09.817Z,19.15
2019-05-10T14:04:44.545Z,28.25
2019-05-10T14:07:21.415Z,26.95
2019-05-10T14:09:59.451Z,24.87
2019-05-10T14:12:35.283Z,24.85
2019-05-10T14:15:13.837Z,24.67
2019-05-10T14:17:49.894Z,23.35
2019-05-10T14:20:27.664Z,22.10
2019-05-10T14:23:03.557Z,21.65
2019-05-10T14:25:39.335Z,19.67
2019-05-10T14:28:18.219Z,21.07
2019-05-10T14:30:58.554Z,23.60
2019-05-10T14:33:33.852Z,23.55
2019-05-10T14:36:12.505Z,21.70
2019-05-10T14:38:53.863Z,56.85
2019-05-10T14:41:29.736Z,58.78
2019-05-10T14:44:05.558Z,36.80
2019-05-10T14:46:40.219Z,106.10
2019-05-10T14:49:18.940Z,163.28
2019-05-10T14:51:59.313Z,242.15
2019-05-10T14:54:43.266Z,383.80
2019-05-10T14:57:09.077Z,346.60
2019-05-10T14:59:46.286Z,119.85
2019-05-10T15:02:25.625Z,56.65
2019-05-10T15:05:01.808Z,76.50
2019-05-10T15:07:37.059Z,96.92
2019-05-10T15:10:11.903Z,127.62
2019-05-10T15:12:50.015Z,263.55
2019-05-10T15:15:24.729Z,312.10
2019-05-10T15:18:03.595Z,209.62
2019-05-10T15:20:38.556Z,223.18
2019-05-10T15:23:17.511Z,219.70
2019-05-10T15:25:57.534Z,131.22
2019-05-10T15:28:34.534Z,59.83
2019-05-10T15:31:07.112Z,63.28
2019-05-10T15:33:43.079Z,39.98
2019-05-10T15:36:23.665Z,44.65
2019-05-10T15:38:55.027Z,58.28
2019-05-10T15:41:33.318Z,106.12
2019-05-10T15:44:09.136Z,101.97
2019-05-10T15:46:51.957Z,77.85
2019-05-10T15:49:34.666Z,84.10
2019-05-10T15:52:19.102Z,80.15
2019-05-10T15:54:55.384Z,62.38
2019-05-10T15:57:32.546Z,73.00
2019-05-10T16:00:10.496Z,70.85
2019-05-10T16:02:47.304Z,97.25
2019-05-10T16:05:42.426Z,104.23
2019-05-10T16:08:04.686Z,96.05
2019-05-10T16:10:40.912Z,75.20
2019-05-10T16:13:23.275Z,69.20
2019-05-10T16:15:57.623Z,88.25
2019-05-10T16:18:33.641Z,78.20
2019-05-10T16:21:15.109Z,96.37
2019-05-10T16:23:49.680Z,88.90
2019-05-10T16:26:27.287Z,89.90
2019-05-10T16:29:04.491Z,74.65
2019-05-10T16:31:41.521Z,76.47
2019-05-10T16:34:16.214Z,73.45
2019-05-10T16:36:51.710Z,72.80
2019-05-10T16:39:28.481Z,91.75
2019-05-10T16:42:05.865Z,100.92
2019-05-10T16:44:40.574Z,90.95
2019-05-10T16:47:17.712Z,66.00
2019-05-10T16:49:55.019Z,37.70
2019-05-10T16:52:29.314Z,39.10
2019-05-10T16:55:05.815Z,41.73
2019-05-10T16:57:42.647Z,33.60
2019-05-10T17:00:22.140Z,36.98
2019-05-10T17:03:13.238Z,40.48
2019-05-10T17:05:53.077Z,44.10
2019-05-10T17:08:30.822Z,55.03
2019-05-10T17:11:09.603Z,30.45
2019-05-10T17:13:41.661Z,43.75
2019-05-10T17:16:16.985Z,70.22
2019-05-10T17:18:55.430Z,57.45
2019-05-10T17:21:30.388Z,58.58
2019-05-10T17:24:05.539Z,40.63
2019-05-10T17:26:42.011Z,24.20
2019-05-10T17:29:16.287Z,41.85
2019-05-10T17:31:51.882Z,43.90
2019-05-10T17:34:29.547Z,50.48
2019-05-10T17:37:05.714Z,33.05
2019-05-10T17:39:46.780Z,33.70
2019-05-10T17:42:21.745Z,35.08
2019-05-10T17:45:01.678Z,28.32
2019-05-10T17:47:32.457Z,22.90
2019-05-10T17:50:11.021Z,32.63
2019-05-10T17:52:46.705Z,46.50
2019-05-10T17:55:26.413Z,36.42
2019-05-10T17:58:04.038Z,46.53
2019-05-10T18:00:50.292Z,31.50
2019-05-10T18:03:25.885Z,32.45
2019-05-10T18:06:00.013Z,37.63
2019-05-10T18:08:39.084Z,36.70
2019-05-10T18:11:13.813Z,36.00
2019-05-10T18:13:48.195Z,36.68
2019-05-10T18:16:22.858Z,26.82
2019-05-10T18:18:58.414Z,24.98
2019-05-10T18:21:32.909Z,28.12
2019-05-10T18:24:08.457Z,31.80
2019-05-10T18:26:43.173Z,27.75
2019-05-10T18:29:17.495Z,23.85
2019-05-10T18:31:55.868Z,18.25
2019-05-10T18:34:33.070Z,16.50
2019-05-10T18:37:05.436Z,17.17
2019-05-10T18:39:47.162Z,16.70
2019-05-10T18:42:18.775Z,16.55
2019-05-10T18:44:55.456Z,16.50
2019-05-10T18:47:31.898Z,18.45
2019-05-10T18:50:09.136Z,17.82
2019-05-10T18:52:44.857Z,16.85
2019-05-10T18:55:21.323Z,17.52
2019-05-10T18:57:56.866Z,17.52
2019-05-10T19:00:31.192Z,16.95
2019-05-10T19:03:09.172Z,16.55
2019-05-10T19:05:48.963Z,16.95
2019-05-10T19:08:25.738Z,19.20
2019-05-10T19:11:00.344Z,18.23
2019-05-10T19:13:46.755Z,16.85
2019-05-10T19:16:11.131Z,16.85
2019-05-10T19:18:45.307Z,15.70
2019-05-10T19:21:19.660Z,16.37
2019-05-10T19:23:53.925Z,19.15
2019-05-10T19:26:29.459Z,21.23
2019-05-10T19:29:05.015Z,19.73
2019-05-10T19:31:40.421Z,18.73
2019-05-10T19:34:17.085Z,18.12
2019-05-10T19:36:50.678Z,17.82
2019-05-10T19:39:24.949Z,17.90
2019-05-10T19:42:04.169Z,18.52
2019-05-10T19:44:40.495Z,18.57
2019-05-10T19:47:17.811Z,16.87
2019-05-10T19:49:51.734Z,16.25
2019-05-10T19:52:26.099Z,17.20
2019-05-10T19:54:59.012Z,16.00
2019-05-10T19:57:33.211Z,16.20
2019-05-10T20:00:08.562Z,16.77
2019-05-10T20:02:42.810Z,16.00
2019-05-10T20:05:17.256Z,15.00
2019-05-10T20:07:51.977Z,15.58
2019-05-10T20:10:26.061Z,16.55
2019-05-10T20:13:00.240Z,17.00
2019-05-10T20:15:34.470Z,17.20
2019-05-10T20:18:13.621Z,17.45
2019-05-10T20:20:51.299Z,17.25
2019-05-10T20:23:25.676Z,16.93
2019-05-10T20:26:00.875Z,16.67
2019-05-10T20:28:35.055Z,16.37
2019-05-10T20:31:09.598Z,17.05
2019-05-10T20:33:43.878Z,17.62
2019-05-10T20:36:18.059Z,17.30
2019-05-10T20:38:52.287Z,17.48
2019-05-10T20:41:26.547Z,17.37
2019-05-10T20:44:00.765Z,17.37
2019-05-10T20:46:34.916Z,17.57
2019-05-10T20:49:09.229Z,17.62
2019-05-10T20:51:44.654Z,16.57
2019-05-10T20:54:18.872Z,16.82
2019-05-10T20:56:53.181Z,17.32
2019-05-10T20:59:27.382Z,16.87
2019-05-10T21:02:01.595Z,17.42
2019-05-10T21:04:35.865Z,16.67
2019-05-10T21:07:10.308Z,16.00
2019-05-10T21:09:44.620Z,16.65
2019-05-10T21:12:18.866Z,16.97
2019-05-10T21:14:53.676Z,17.62
2019-05-10T21:17:27.835Z,16.55
2019-05-10T21:20:02.048Z,17.35
2019-05-10T21:22:36.298Z,17.42
2019-05-10T21:25:12.357Z,17.73
2019-05-10T21:27:46.662Z,18.27
2019-05-10T21:30:20.941Z,17.32
2019-05-10T21:32:55.146Z,16.90
2019-05-10T21:35:30.426Z,18.05
2019-05-10T21:38:04.923Z,17.67
2019-05-10T21:40:40.335Z,16.93
2019-05-10T21:43:14.551Z,17.62
2019-05-10T21:45:48.850Z,18.20
2019-05-10T21:48:23.067Z,17.52
2019-05-10T21:50:57.428Z,17.67
2019-05-10T21:53:31.758Z,18.27
2019-05-10T21:56:06.168Z,18.65
2019-05-10T21:58:40.463Z,17.90
2019-05-10T22:01:14.638Z,17.90
2019-05-10T22:03:49.476Z,18.87
2019-05-10T22:06:23.644Z,18.65
2019-05-10T22:08:57.825Z,18.65
2019-05-10T22:11:32.147Z,18.92
2019-05-10T22:14:06.350Z,19.73
2019-05-10T22:16:40.610Z,20.30
2019-05-10T22:19:14.740Z,19.23
2019-05-10T22:21:49.019Z,20.88
2019-05-10T22:24:23.190Z,22.15
2019-05-10T22:26:57.271Z,21.05
2019-05-10T22:29:31.533Z,20.12
2019-05-10T22:32:05.786Z,20.90
2019-05-10T22:34:39.962Z,19.73
2019-05-10T22:37:14.256Z,19.92
2019-05-10T22:39:48.503Z,18.73
2019-05-10T22:42:23.074Z,19.45
2019-05-10T22:44:57.267Z,19.48
2019-05-10T22:47:31.451Z,20.15
2019-05-10T22:50:06.654Z,19.57
2019-05-10T22:52:41.052Z,19.30
2019-05-10T22:55:15.496Z,19.12
2019-05-10T22:57:50.031Z,18.77
2019-05-10T23:00:24.406Z,19.30
2019-05-10T23:03:01.770Z,19.48
2019-05-10T23:05:36.072Z,22.10
2019-05-10T23:08:10.365Z,21.70
2019-05-10T23:10:44.493Z,25.05
2019-05-10T23:13:18.834Z,24.02
2019-05-10T23:15:53.293Z,22.22
2019-05-10T23:18:27.571Z,25.05
2019-05-10T23:21:01.864Z,26.30
2019-05-10T23:23:35.967Z,22.25
2019-05-10T23:26:10.211Z,22.35
2019-05-10T23:28:44.377Z,22.82
2019-05-10T23:31:18.759Z,20.50
2019-05-10T23:33:52.994Z,20.20
2019-05-10T23:36:31.472Z,19.07
2019-05-10T23:39:06.252Z,40.12
2019-05-10T23:41:52.847Z,63.38
2019-05-10T23:44:27.032Z,52.43
2019-05-10T23:47:01.339Z,45.15
2019-05-10T23:49:35.544Z,63.87
2019-05-10T23:52:09.910Z,75.47
2019-05-10T23:54:45.847Z,91.02
2019-05-10T23:57:20.142Z,91.97
2019-05-10T23:59:54.433Z,63.40
